createdAt,value
2019-04-29T00:01:07.624Z,29.90
2019-04-29T00:03:39.357Z,30.10
2019-04-29T00:06:11.169Z,30.30
2019-04-29T00:08:42.674Z,30.60
2019-04-29T00:11:14.245Z,30.90
2019-04-29T00:13:46.038Z,31.10
2019-04-29T00:16:18.413Z,31.30
2019-04-29T00:18:51.193Z,31.50
2019-04-29T00:21:23.468Z,31.80
2019-04-29T00:24:03.508Z,32.10
2019-04-29T00:26:28.217Z,32.40
2019-04-29T00:28:59.632Z,32.70
2019-04-29T00:31:31.397Z,33.00
2019-04-29T00:34:03.189Z,33.10
2019-04-29T00:36:34.653Z,33.30
2019-04-29T00:39:08.557Z,33.40
2019-04-29T00:41:41.668Z,33.50
2019-04-29T00:44:14.675Z,33.40
2019-04-29T00:46:46.280Z,33.60
2019-04-29T00:49:17.399Z,33.70
2019-04-29T00:51:48.956Z,33.90
2019-04-29T00:54:21.702Z,34.10
2019-04-29T00:56:53.396Z,34.20
2019-04-29T00:59:24.873Z,34.50
2019-04-29T01:01:56.534Z,34.80
2019-04-29T01:04:26.674Z,35.00
2019-04-29T01:06:58.343Z,35.10
2019-04-29T01:09:29.368Z,35.00
2019-04-29T01:12:00.975Z,35.10
2019-04-29T01:14:32.637Z,35.20
2019-04-29T01:17:02.777Z,35.30
2019-04-29T01:19:34.449Z,35.40
2019-04-29T01:22:04.343Z,35.30
2019-04-29T01:24:35.816Z,35.30
2019-04-29T01:27:08.724Z,35.60
2019-04-29T01:29:40.360Z,35.80
2019-04-29T01:32:10.805Z,36.10
2019-04-29T01:34:43.356Z,36.30
2019-04-29T01:37:14.982Z,36.70
2019-04-29T01:39:46.522Z,37.10
2019-04-29T01:42:19.283Z,37.50
2019-04-29T01:44:50.469Z,37.70
2019-04-29T01:47:22.148Z,37.70
2019-04-29T01:49:53.780Z,37.80
2019-04-29T01:52:25.697Z,37.90
2019-04-29T01:54:57.156Z,38.00
2019-04-29T01:57:27.206Z,38.20
2019-04-29T01:59:59.081Z,38.30
2019-04-29T02:02:30.421Z,38.40
2019-04-29T02:05:02.235Z,38.40
2019-04-29T02:07:33.996Z,38.40
2019-04-29T02:10:08.272Z,38.30
2019-04-29T02:12:39.916Z,38.40
2019-04-29T02:15:11.756Z,38.50
2019-04-29T02:17:43.520Z,38.70
2019-04-29T02:20:15.486Z,38.90
2019-04-29T02:22:48.295Z,39.10
2019-04-29T02:25:21.282Z,39.30
2019-04-29T02:27:52.734Z,39.60
2019-04-29T02:30:26.339Z,39.70
2019-04-29T02:32:57.888Z,39.80
2019-04-29T02:35:29.133Z,39.90
2019-04-29T02:38:00.239Z,39.80
2019-04-29T02:40:32.852Z,39.80
2019-04-29T02:43:05.541Z,39.90
2019-04-29T02:45:37.469Z,40.10
2019-04-29T02:48:11.311Z,40.30
2019-04-29T02:50:42.961Z,40.20
2019-04-29T02:53:14.515Z,40.30
2019-04-29T02:55:47.694Z,40.40
2019-04-29T02:58:20.970Z,40.40
2019-04-29T03:00:53.986Z,40.50
2019-04-29T03:03:26.896Z,40.60
2019-04-29T03:05:59.887Z,40.60
2019-04-29T03:08:31.543Z,40.60
2019-04-29T03:11:03.298Z,40.20
2019-04-29T03:13:35.049Z,39.90
2019-04-29T03:16:06.375Z,39.80
2019-04-29T03:18:37.672Z,40.00
2019-04-29T03:21:10.704Z,40.10
2019-04-29T03:23:42.288Z,40.30
2019-04-29T03:26:13.413Z,40.50
2019-04-29T03:28:45.095Z,40.70
2019-04-29T03:31:16.656Z,40.90
2019-04-29T03:33:48.202Z,40.90
2019-04-29T03:36:19.518Z,40.70
2019-04-29T03:38:49.783Z,40.60
2019-04-29T03:41:21.451Z,40.40
2019-04-29T03:43:52.963Z,40.00
2019-04-29T03:46:24.078Z,39.60
2019-04-29T03:48:55.697Z,39.20
2019-04-29T03:51:27.017Z,38.80
2019-04-29T03:53:57.759Z,38.80
2019-04-29T03:56:29.412Z,38.70
2019-04-29T03:59:01.188Z,38.60
2019-04-29T04:01:33.909Z,38.40
2019-04-29T04:04:06.968Z,38.30
2019-04-29T04:06:40.020Z,38.30
2019-04-29T04:09:12.643Z,38.20
2019-04-29T04:11:44.283Z,38.20
2019-04-29T04:14:15.594Z,38.30
2019-04-29T04:16:48.022Z,38.30
2019-04-29T04:19:20.175Z,38.40
2019-04-29T04:21:52.025Z,38.50
2019-04-29T04:24:23.222Z,38.50
2019-04-29T04:26:54.933Z,38.50
2019-04-29T04:29:26.614Z,38.30
2019-04-29T04:31:58.048Z,38.00
2019-04-29T04:34:28.303Z,37.70
2019-04-29T04:37:00.374Z,37.50
2019-04-29T04:39:34.446Z,37.40
2019-04-29T04:42:05.570Z,37.40
2019-04-29T04:44:38.810Z,37.50
2019-04-29T04:47:10.537Z,37.50
2019-04-29T04:49:41.729Z,37.50
2019-04-29T04:52:13.359Z,37.60
2019-04-29T04:54:46.209Z,37.80
2019-04-29T04:57:17.254Z,37.70
2019-04-29T04:59:49.022Z,37.70
2019-04-29T05:02:20.333Z,37.70
2019-04-29T05:04:51.303Z,37.80
2019-04-29T05:07:23.085Z,38.00
2019-04-29T05:09:54.371Z,38.10
2019-04-29T05:12:25.895Z,38.20
2019-04-29T05:14:57.557Z,38.30
2019-04-29T05:17:29.106Z,38.50
2019-04-29T05:20:00.548Z,38.60
2019-04-29T05:22:31.012Z,38.80
2019-04-29T05:25:02.720Z,39.00
2019-04-29T05:27:34.318Z,39.10
2019-04-29T05:30:06.836Z,39.20
2019-04-29T05:32:38.291Z,39.30
2019-04-29T05:35:11.024Z,39.30
2019-04-29T05:37:43.909Z,39.10
2019-04-29T05:40:16.853Z,39.00
2019-04-29T05:42:48.234Z,39.10
2019-04-29T05:45:20.826Z,39.20
2019-04-29T05:47:57.100Z,39.30
2019-04-29T05:50:27.916Z,39.40
2019-04-29T05:53:00.979Z,39.60
2019-04-29T05:55:32.564Z,39.60
2019-04-29T05:58:05.414Z,39.70
2019-04-29T06:00:36.523Z,39.70
2019-04-29T06:03:08.167Z,39.80
2019-04-29T06:05:39.987Z,39.80
2019-04-29T06:08:11.677Z,39.90
2019-04-29T06:10:43.333Z,39.70
2019-04-29T06:13:14.758Z,39.50
2019-04-29T06:15:45.868Z,39.20
2019-04-29T06:18:17.691Z,39.00
2019-04-29T06:20:50.028Z,38.90
2019-04-29T06:23:23.106Z,38.70
2019-04-29T06:25:54.938Z,38.60
2019-04-29T06:28:28.038Z,38.50
2019-04-29T06:30:58.570Z,38.40
2019-04-29T06:33:31.010Z,38.30
2019-04-29T06:36:02.230Z,38.20
2019-04-29T06:38:33.858Z,38.10
2019-04-29T06:41:05.572Z,38.10
2019-04-29T06:43:37.036Z,38.10
2019-04-29T06:46:08.825Z,38.20
2019-04-29T06:48:40.494Z,38.20
2019-04-29T06:51:11.908Z,38.20
2019-04-29T06:53:42.804Z,38.10
2019-04-29T06:56:15.173Z,38.20
2019-04-29T06:58:49.141Z,38.20
2019-04-29T07:01:25.567Z,38.30
2019-04-29T07:03:59.863Z,38.40
2019-04-29T07:06:30.268Z,38.40
2019-04-29T07:09:02.000Z,38.50
2019-04-29T07:11:36.554Z,38.40
2019-04-29T07:14:07.135Z,38.50
2019-04-29T07:16:38.953Z,38.40
2019-04-29T07:19:10.859Z,38.30
2019-04-29T07:21:46.773Z,38.30
2019-04-29T07:24:15.367Z,38.30
2019-04-29T07:26:47.630Z,38.30
2019-04-29T07:29:19.118Z,38.30
2019-04-29T07:31:51.184Z,38.40
2019-04-29T07:34:22.961Z,38.40
2019-04-29T07:36:57.624Z,38.40
2019-04-29T07:39:31.676Z,38.40
2019-04-29T07:42:03.001Z,38.40
2019-04-29T07:44:43.721Z,38.50
2019-04-29T07:47:06.584Z,38.40
2019-04-29T07:49:38.394Z,38.40
2019-04-29T07:52:14.032Z,38.40
2019-04-29T07:54:42.240Z,38.40
2019-04-29T07:57:16.471Z,38.40
2019-04-29T07:59:46.687Z,38.30
2019-04-29T08:02:18.255Z,38.40
2019-04-29T08:04:49.818Z,38.40
2019-04-29T08:07:21.982Z,38.40
2019-04-29T08:09:54.431Z,38.50
2019-04-29T08:12:27.674Z,38.50
2019-04-29T08:15:07.547Z,38.50
2019-04-29T08:17:32.638Z,38.50
2019-04-29T08:20:05.148Z,38.50
2019-04-29T08:22:37.140Z,38.40
2019-04-29T08:25:09.702Z,38.50
2019-04-29T08:27:43.604Z,38.40
2019-04-29T08:30:14.456Z,38.50
2019-04-29T08:32:45.298Z,38.50
2019-04-29T08:35:17.400Z,38.50
2019-04-29T08:37:49.147Z,38.50
2019-04-29T08:40:21.633Z,38.50
2019-04-29T08:42:54.689Z,38.50
2019-04-29T08:45:27.245Z,38.40
2019-04-29T08:47:59.848Z,38.30
2019-04-29T08:50:31.303Z,38.20
2019-04-29T08:53:03.163Z,38.10
2019-04-29T08:55:36.505Z,38.10
2019-04-29T08:58:11.190Z,38.00
2019-04-29T09:00:40.944Z,38.00
2019-04-29T09:03:12.677Z,37.90
2019-04-29T09:05:46.062Z,37.90
2019-04-29T09:08:17.741Z,37.80
2019-04-29T09:10:48.968Z,37.80
2019-04-29T09:13:20.205Z,37.90
2019-04-29T09:15:51.841Z,37.80
2019-04-29T09:18:23.183Z,37.90
2019-04-29T09:20:54.765Z,37.90
2019-04-29T09:23:26.168Z,37.80
2019-04-29T09:26:02.717Z,37.80
2019-04-29T09:28:32.356Z,37.70
2019-04-29T09:31:03.810Z,37.70
2019-04-29T09:33:34.579Z,37.70
2019-04-29T09:36:09.725Z,37.70
2019-04-29T09:38:39.481Z,37.80
2019-04-29T09:41:12.082Z,37.80
2019-04-29T09:43:45.222Z,37.80
2019-04-29T09:46:18.606Z,37.80
2019-04-29T09:48:50.071Z,37.80
2019-04-29T09:51:27.481Z,37.80
2019-04-29T09:53:55.374Z,37.90
2019-04-29T09:56:26.689Z,37.80
2019-04-29T09:58:59.457Z,37.70
2019-04-29T10:01:32.746Z,37.60
2019-04-29T10:04:05.210Z,37.60
2019-04-29T10:06:38.134Z,37.50
2019-04-29T10:09:11.355Z,37.50
2019-04-29T10:11:43.187Z,37.40
2019-04-29T10:14:15.030Z,37.30
2019-04-29T10:16:47.435Z,37.30
2019-04-29T10:19:20.540Z,37.20
2019-04-29T10:21:52.520Z,37.10
2019-04-29T10:24:23.834Z,37.20
2019-04-29T10:26:55.517Z,37.10
2019-04-29T10:29:28.582Z,37.10
2019-04-29T10:32:02.401Z,37.10
2019-04-29T10:34:33.242Z,37.10
2019-04-29T10:37:05.077Z,37.00
2019-04-29T10:39:38.203Z,36.90
2019-04-29T10:42:10.860Z,36.80
2019-04-29T10:44:43.970Z,36.70
2019-04-29T10:47:17.003Z,36.60
2019-04-29T10:49:49.749Z,36.60
2019-04-29T10:52:21.257Z,36.60
2019-04-29T10:54:55.487Z,36.50
2019-04-29T10:57:28.991Z,36.40
2019-04-29T11:00:01.125Z,36.30
2019-04-29T11:02:33.380Z,36.20
2019-04-29T11:05:07.952Z,36.10
2019-04-29T11:07:39.742Z,36.00
2019-04-29T11:10:24.366Z,35.90
2019-04-29T11:12:44.555Z,35.70
2019-04-29T11:15:16.490Z,35.60
2019-04-29T11:17:47.453Z,35.40
2019-04-29T11:20:21.421Z,35.30
2019-04-29T11:22:54.183Z,35.20
2019-04-29T11:25:26.930Z,35.10
2019-04-29T11:27:59.919Z,35.00
2019-04-29T11:30:34.836Z,34.90
2019-04-29T11:33:07.117Z,34.70
2019-04-29T11:35:40.046Z,34.60
2019-04-29T11:38:13.242Z,34.50
2019-04-29T11:40:44.999Z,34.40
2019-04-29T11:43:17.200Z,34.30
2019-04-29T11:45:48.797Z,34.20
2019-04-29T11:48:20.595Z,34.10
2019-04-29T11:50:54.886Z,34.00
2019-04-29T11:53:25.431Z,33.90
2019-04-29T11:55:57.000Z,33.80
2019-04-29T11:58:30.864Z,33.70
2019-04-29T12:01:07.719Z,33.60
2019-04-29T12:03:38.101Z,33.50
2019-04-29T12:06:11.060Z,33.40
2019-04-29T12:08:42.198Z,33.30
2019-04-29T12:11:13.964Z,33.20
2019-04-29T12:13:46.946Z,33.10
2019-04-29T12:16:24.013Z,33.10
2019-04-29T12:18:53.600Z,33.10
2019-04-29T12:21:26.118Z,33.00
2019-04-29T12:23:59.247Z,33.00
2019-04-29T12:26:35.521Z,32.90
2019-04-29T12:29:04.572Z,32.90
2019-04-29T12:31:37.261Z,32.90
2019-04-29T12:34:10.189Z,32.80
2019-04-29T12:36:54.814Z,32.80
2019-04-29T12:39:15.509Z,32.80
2019-04-29T12:41:49.349Z,32.70
2019-04-29T12:44:34.748Z,32.70
2019-04-29T12:46:57.028Z,32.70
2019-04-29T12:49:28.295Z,32.70
2019-04-29T12:52:00.181Z,32.70
2019-04-29T12:54:30.373Z,32.70
2019-04-29T12:57:01.626Z,32.70
2019-04-29T12:59:35.439Z,32.70
2019-04-29T13:02:06.806Z,32.70
2019-04-29T13:04:40.205Z,32.70
2019-04-29T13:07:12.483Z,32.90
2019-04-29T13:09:45.327Z,33.00
2019-04-29T13:12:19.353Z,33.00
2019-04-29T13:15:02.223Z,33.10
2019-04-29T13:17:26.675Z,33.10
2019-04-29T13:20:02.087Z,33.20
2019-04-29T13:22:33.172Z,33.30
2019-04-29T13:25:04.929Z,33.30
2019-04-29T13:27:36.463Z,33.40
2019-04-29T13:30:16.092Z,33.50
2019-04-29T13:32:45.753Z,33.60
2019-04-29T13:35:17.144Z,33.60
2019-04-29T13:37:48.057Z,33.60
2019-04-29T13:40:20.460Z,33.60
2019-04-29T13:42:52.216Z,33.60
2019-04-29T13:45:26.190Z,33.60
2019-04-29T13:48:01.734Z,33.60
2019-04-29T13:50:39.254Z,33.60
2019-04-29T13:53:06.625Z,33.60
2019-04-29T13:55:47.831Z,33.60
2019-04-29T13:58:09.944Z,33.60
2019-04-29T14:00:43.797Z,33.50
2019-04-29T14:03:16.543Z,33.40
2019-04-29T14:05:48.504Z,33.40
2019-04-29T14:08:19.295Z,33.30
2019-04-29T14:10:52.699Z,33.20
2019-04-29T14:13:23.513Z,33.20
2019-04-29T14:15:55.327Z,33.10
2019-04-29T14:18:27.228Z,33.00
2019-04-29T14:20:57.789Z,33.00
2019-04-29T14:23:29.232Z,33.00
2019-04-29T14:26:00.624Z,33.00
2019-04-29T14:28:31.682Z,33.00
2019-04-29T14:31:03.305Z,33.00
2019-04-29T14:33:36.135Z,33.00
2019-04-29T14:36:09.425Z,33.00
2019-04-29T14:38:42.560Z,32.90
2019-04-29T14:41:14.200Z,32.90
2019-04-29T14:43:50.609Z,32.80
2019-04-29T14:46:21.999Z,32.80
2019-04-29T14:48:54.932Z,32.70
2019-04-29T14:51:27.900Z,32.60
2019-04-29T14:54:01.301Z,32.50
2019-04-29T14:56:31.826Z,32.50
2019-04-29T14:59:06.911Z,32.40
2019-04-29T15:01:37.503Z,32.30
2019-04-29T15:04:17.764Z,32.20
2019-04-29T15:06:42.699Z,32.10
2019-04-29T15:09:17.816Z,32.00
2019-04-29T15:11:48.957Z,32.00
2019-04-29T15:14:23.797Z,31.90
2019-04-29T15:16:55.712Z,31.80
2019-04-29T15:19:28.332Z,31.80
2019-04-29T15:22:00.964Z,31.70
2019-04-29T15:24:32.324Z,31.80
2019-04-29T15:27:05.119Z,31.80
2019-04-29T15:29:36.406Z,31.80
2019-04-29T15:32:11.010Z,31.80
2019-04-29T15:34:44.009Z,31.90
2019-04-29T15:37:13.719Z,31.90
2019-04-29T15:39:46.201Z,32.00
2019-04-29T15:42:18.307Z,32.00
2019-04-29T15:44:51.619Z,32.00
2019-04-29T15:47:22.256Z,32.00
2019-04-29T15:49:55.858Z,32.10
2019-04-29T15:52:27.730Z,32.10
2019-04-29T15:54:59.589Z,32.10
2019-04-29T15:57:31.394Z,32.10
2019-04-29T16:00:19.799Z,32.10
2019-04-29T16:02:35.894Z,32.10
2019-04-29T16:05:12.803Z,32.10
2019-04-29T16:07:46.853Z,32.10
2019-04-29T16:10:20.715Z,32.10
2019-04-29T16:12:52.789Z,32.00
2019-04-29T16:15:24.501Z,32.00
2019-04-29T16:17:55.745Z,32.00
2019-04-29T16:20:27.432Z,32.00
2019-04-29T16:23:00.724Z,32.00
2019-04-29T16:25:30.504Z,32.00
2019-04-29T16:28:01.591Z,32.00
2019-04-29T16:30:33.746Z,31.90
2019-04-29T16:33:12.945Z,32.00
2019-04-29T16:35:37.705Z,31.90
2019-04-29T16:38:11.784Z,31.90
2019-04-29T16:40:43.372Z,31.80
2019-04-29T16:43:16.139Z,31.80
2019-04-29T16:45:51.523Z,31.80
2019-04-29T16:48:21.775Z,31.70
2019-04-29T16:50:53.546Z,31.70
2019-04-29T16:53:25.240Z,31.70
2019-04-29T16:55:56.458Z,31.60
2019-04-29T16:58:27.711Z,31.60
2019-04-29T17:00:59.601Z,31.60
2019-04-29T17:03:29.619Z,31.60
2019-04-29T17:06:01.273Z,31.70
2019-04-29T17:08:34.239Z,31.70
2019-04-29T17:11:12.038Z,31.70
2019-04-29T17:13:40.182Z,31.70
2019-04-29T17:16:12.858Z,31.70
2019-04-29T17:18:44.552Z,31.70
2019-04-29T17:21:15.986Z,31.70
2019-04-29T17:23:47.296Z,31.70
2019-04-29T17:26:19.856Z,31.70
2019-04-29T17:28:52.699Z,31.60
2019-04-29T17:31:25.587Z,31.60
2019-04-29T17:33:58.895Z,31.60
2019-04-29T17:36:30.968Z,31.50
2019-04-29T17:39:02.631Z,31.50
2019-04-29T17:41:34.408Z,31.50
2019-04-29T17:44:07.803Z,31.50
2019-04-29T17:46:40.519Z,31.40
2019-04-29T17:49:13.168Z,31.40
2019-04-29T17:51:45.929Z,31.40
2019-04-29T17:54:19.271Z,31.30
2019-04-29T17:57:04.900Z,31.30
2019-04-29T17:59:30.540Z,31.30
2019-04-29T18:02:00.848Z,31.30
2019-04-29T18:04:33.383Z,31.20
2019-04-29T18:07:11.047Z,31.20
2019-04-29T18:09:41.049Z,31.10
2019-04-29T18:12:14.901Z,31.10
2019-04-29T18:14:46.024Z,31.10
2019-04-29T18:17:27.471Z,31.10
2019-04-29T18:19:52.280Z,31.10
2019-04-29T18:22:25.371Z,31.00
2019-04-29T18:24:58.420Z,31.00
2019-04-29T18:27:34.247Z,31.00
2019-04-29T18:30:06.974Z,30.90
2019-04-29T18:32:42.064Z,30.90
2019-04-29T18:35:10.930Z,30.90
2019-04-29T18:37:42.919Z,30.80
2019-04-29T18:40:13.026Z,30.70
2019-04-29T18:42:46.922Z,30.70
2019-04-29T18:45:17.277Z,30.60
2019-04-29T18:47:49.515Z,30.50
2019-04-29T18:50:20.334Z,30.50
2019-04-29T18:52:51.140Z,30.40
2019-04-29T18:55:21.975Z,30.40
2019-04-29T18:57:54.599Z,30.30
2019-04-29T19:00:25.420Z,30.30
2019-04-29T19:02:58.462Z,30.30
2019-04-29T19:05:32.486Z,30.30
2019-04-29T19:08:12.155Z,30.20
2019-04-29T19:10:37.374Z,30.20
2019-04-29T19:13:12.750Z,30.20
2019-04-29T19:15:47.014Z,30.20
2019-04-29T19:18:17.504Z,30.10
2019-04-29T19:20:52.516Z,30.10
2019-04-29T19:23:22.343Z,30.10
2019-04-29T19:25:52.563Z,30.00
2019-04-29T19:28:30.099Z,30.00
2019-04-29T19:31:03.303Z,30.00
2019-04-29T19:33:30.741Z,29.90
2019-04-29T19:36:02.652Z,29.90
2019-04-29T19:38:35.131Z,29.80
2019-04-29T19:41:06.324Z,29.80
2019-04-29T19:43:37.328Z,29.70
2019-04-29T19:46:21.218Z,29.60
2019-04-29T19:48:42.080Z,29.60
2019-04-29T19:51:17.549Z,29.60
2019-04-29T19:53:49.397Z,29.50
2019-04-29T19:56:23.160Z,29.50
2019-04-29T19:58:51.735Z,29.40
2019-04-29T20:01:29.788Z,29.40
2019-04-29T20:03:57.377Z,29.40
2019-04-29T20:06:30.557Z,29.40
2019-04-29T20:09:03.506Z,29.40
2019-04-29T20:11:36.747Z,29.30
2019-04-29T20:14:17.958Z,29.30
2019-04-29T20:16:46.258Z,29.20
2019-04-29T20:19:20.441Z,29.10
2019-04-29T20:21:48.802Z,29.00
2019-04-29T20:24:23.336Z,29.00
2019-04-29T20:26:52.971Z,28.90
2019-04-29T20:29:27.172Z,28.80
2019-04-29T20:31:57.101Z,28.80
2019-04-29T20:34:28.442Z,28.70
2019-04-29T20:36:59.806Z,28.70
2019-04-29T20:39:31.138Z,28.70
2019-04-29T20:44:36.777Z,28.70
2019-04-29T20:47:19.497Z,28.70
2019-04-29T20:49:40.271Z,28.60
2019-04-29T20:52:13.452Z,28.70
2019-04-29T20:54:48.308Z,28.70
2019-04-29T20:57:21.757Z,28.80
2019-04-29T20:59:51.662Z,28.80
2019-04-29T21:02:31.371Z,28.90
2019-04-29T21:04:57.803Z,28.90
2019-04-29T21:07:28.441Z,28.90
2019-04-29T21:10:03.918Z,28.90
2019-04-29T21:12:38.051Z,28.90
2019-04-29T21:15:14.771Z,28.90
2019-04-29T21:17:42.772Z,28.80
2019-04-29T21:20:14.491Z,28.90
2019-04-29T21:22:46.264Z,29.00
2019-04-29T21:25:18.047Z,29.00
2019-04-29T21:27:52.685Z,29.00
2019-04-29T21:30:27.128Z,29.10
2019-04-29T21:32:55.817Z,29.10
2019-04-29T21:35:28.931Z,29.10
2019-04-29T21:38:01.532Z,29.20
2019-04-29T21:40:35.072Z,29.20
2019-04-29T21:43:13.743Z,29.20
2019-04-29T21:45:44.912Z,29.30
2019-04-29T21:48:13.985Z,29.20
2019-04-29T21:50:45.757Z,29.20
2019-04-29T21:53:16.785Z,29.20
2019-04-29T21:55:48.380Z,29.10
2019-04-29T21:58:19.761Z,29.10
2019-04-29T22:00:55.895Z,29.10
2019-04-29T22:03:26.947Z,29.10
2019-04-29T22:05:57.365Z,29.00
2019-04-29T22:08:30.092Z,29.10
2019-04-29T22:11:04.771Z,29.10
2019-04-29T22:13:37.558Z,29.00
2019-04-29T22:16:07.658Z,29.00
2019-04-29T22:18:40.501Z,28.90
2019-04-29T22:21:16.930Z,28.90
2019-04-29T22:23:51.145Z,28.80
2019-04-29T22:26:23.406Z,28.70
2019-04-29T22:28:53.279Z,28.70
2019-04-29T22:31:28.339Z,28.60
2019-04-29T22:33:57.430Z,28.60
2019-04-29T22:36:28.493Z,28.50
2019-04-29T22:39:00.343Z,28.50
2019-04-29T22:41:32.889Z,28.40
2019-04-29T22:44:05.715Z,28.40
2019-04-29T22:46:40.029Z,28.30
2019-04-29T22:49:11.006Z,28.30
2019-04-29T22:51:42.830Z,28.20
2019-04-29T22:54:17.687Z,28.20
2019-04-29T22:56:52.133Z,28.20
2019-04-29T22:59:20.133Z,28.20
2019-04-29T23:01:50.761Z,28.30
2019-04-29T23:04:22.447Z,28.20
2019-04-29T23:06:54.243Z,28.20
2019-04-29T23:09:26.003Z,28.20
2019-04-29T23:11:57.229Z,28.20
2019-04-29T23:14:28.974Z,28.30
2019-04-29T23:17:00.041Z,28.50
2019-04-29T23:19:31.901Z,28.60
2019-04-29T23:22:05.971Z,28.70
2019-04-29T23:24:38.776Z,28.90
2019-04-29T23:27:11.659Z,29.10
2019-04-29T23:29:43.283Z,29.40
2019-04-29T23:32:15.917Z,29.70
2019-04-29T23:34:47.627Z,30.00
2019-04-29T23:37:19.516Z,30.30
2019-04-29T23:39:51.781Z,30.70
2019-04-29T23:42:23.575Z,31.10
2019-04-29T23:44:57.078Z,31.40
2019-04-29T23:47:27.659Z,31.70
2019-04-29T23:49:59.360Z,32.00
2019-04-29T23:52:30.481Z,32.30
2019-04-29T23:55:02.229Z,32.70
2019-04-29T23:57:35.899Z,33.00
